createdAt,value
2018-09-13T00:00:21.324Z,15.90
2018-09-13T00:02:48.870Z,15.90
2018-09-13T00:05:16.394Z,15.90
2018-09-13T00:07:44.050Z,15.90
2018-09-13T00:10:11.604Z,15.80
2018-09-13T00:12:39.143Z,15.80
2018-09-13T00:15:06.760Z,15.90
2018-09-13T00:17:34.355Z,15.90
2018-09-13T00:20:01.876Z,15.90
2018-09-13T00:22:29.358Z,15.90
2018-09-13T00:24:56.940Z,15.90
2018-09-13T00:27:24.455Z,15.90
2018-09-13T00:29:52.041Z,15.90
2018-09-13T00:32:19.611Z,15.80
2018-09-13T00:34:47.116Z,15.90
2018-09-13T00:37:14.690Z,15.80
2018-09-13T00:39:42.232Z,15.80
2018-09-13T00:42:09.744Z,15.80
2018-09-13T00:44:37.260Z,15.90
2018-09-13T00:47:09.347Z,15.80
2018-09-13T00:49:36.864Z,15.80
2018-09-13T00:52:04.373Z,15.80
2018-09-13T00:54:31.895Z,15.90
2018-09-13T00:56:59.422Z,15.90
2018-09-13T00:59:26.929Z,15.90
2018-09-13T01:01:54.450Z,15.90
2018-09-13T01:04:21.950Z,15.90
2018-09-13T01:06:49.460Z,15.90
2018-09-13T01:09:17.009Z,16.00
2018-09-13T01:11:44.516Z,15.90
2018-09-13T01:14:12.027Z,15.90
2018-09-13T01:16:39.571Z,15.90
2018-09-13T01:19:07.133Z,15.70
2018-09-13T01:21:34.643Z,15.70
2018-09-13T01:24:02.174Z,15.70
2018-09-13T01:26:29.680Z,15.70
2018-09-13T01:28:57.216Z,15.80
2018-09-13T01:31:24.834Z,15.80
2018-09-13T01:33:52.357Z,15.90
2018-09-13T01:36:19.972Z,15.90
2018-09-13T01:38:47.543Z,15.90
2018-09-13T01:41:15.061Z,15.90
2018-09-13T01:43:42.591Z,15.90
2018-09-13T01:46:10.153Z,15.80
2018-09-13T01:48:37.675Z,15.80
2018-09-13T01:51:05.437Z,15.80
2018-09-13T01:53:32.960Z,15.80
2018-09-13T01:56:00.452Z,15.80
2018-09-13T01:58:28.053Z,15.80
2018-09-13T02:00:55.635Z,15.80
2018-09-13T02:03:23.577Z,15.80
2018-09-13T02:05:51.254Z,15.80
2018-09-13T02:08:18.750Z,15.80
2018-09-13T02:10:46.233Z,15.90
2018-09-13T02:13:13.767Z,15.90
2018-09-13T02:15:41.269Z,15.80
2018-09-13T02:18:08.748Z,15.70
2018-09-13T02:20:36.264Z,15.70
2018-09-13T02:23:03.879Z,15.70
2018-09-13T02:25:31.381Z,15.70
2018-09-13T02:27:58.973Z,15.70
2018-09-13T02:30:26.471Z,15.70
2018-09-13T02:32:53.983Z,15.70
2018-09-13T02:35:21.587Z,15.70
2018-09-13T02:37:49.138Z,15.70
2018-09-13T02:40:16.641Z,15.60
2018-09-13T02:42:44.231Z,15.60
2018-09-13T02:45:11.759Z,15.60
2018-09-13T02:47:39.289Z,15.60
2018-09-13T02:50:06.861Z,15.60
2018-09-13T02:52:34.393Z,15.60
2018-09-13T02:55:01.882Z,15.60
2018-09-13T02:57:29.447Z,15.60
2018-09-13T02:59:56.971Z,15.60
2018-09-13T03:02:24.479Z,15.60
2018-09-13T03:04:52.063Z,15.60
2018-09-13T03:07:19.529Z,15.60
2018-09-13T03:09:47.049Z,15.60
2018-09-13T03:12:14.714Z,15.60
2018-09-13T03:14:42.217Z,15.50
2018-09-13T03:17:09.755Z,15.50
2018-09-13T03:19:37.302Z,15.50
2018-09-13T03:22:04.802Z,15.50
2018-09-13T03:24:32.289Z,15.40
2018-09-13T03:26:59.790Z,15.50
2018-09-13T03:29:27.393Z,15.50
2018-09-13T03:31:54.936Z,15.50
2018-09-13T03:34:22.486Z,15.50
2018-09-13T03:36:50.301Z,15.40
2018-09-13T03:39:17.792Z,15.40
2018-09-13T03:41:45.312Z,15.40
2018-09-13T03:44:12.823Z,15.40
2018-09-13T03:46:40.314Z,15.40
2018-09-13T03:49:07.837Z,15.40
2018-09-13T03:51:35.353Z,15.50
2018-09-13T03:54:02.869Z,15.40
2018-09-13T03:56:30.397Z,15.40
2018-09-13T03:58:58.043Z,15.40
2018-09-13T04:01:25.565Z,15.40
2018-09-13T04:03:53.180Z,15.40
2018-09-13T04:06:20.746Z,15.40
2018-09-13T04:08:48.317Z,15.40
2018-09-13T04:11:15.888Z,15.40
2018-09-13T04:13:43.451Z,15.30
2018-09-13T04:16:10.963Z,15.30
2018-09-13T04:18:38.543Z,15.20
2018-09-13T04:21:06.094Z,15.20
2018-09-13T04:23:33.708Z,15.30
2018-09-13T04:26:01.270Z,15.30
2018-09-13T04:28:28.842Z,15.30
2018-09-13T04:30:56.329Z,15.30
2018-09-13T04:33:23.846Z,15.30
2018-09-13T04:35:51.534Z,15.30
2018-09-13T04:38:19.026Z,15.30
2018-09-13T04:40:46.541Z,15.30
2018-09-13T04:43:14.142Z,15.20
2018-09-13T04:45:41.751Z,15.30
2018-09-13T04:48:09.350Z,15.30
2018-09-13T04:50:36.874Z,15.30
2018-09-13T04:53:04.796Z,15.30
2018-09-13T04:55:32.318Z,15.30
2018-09-13T04:58:00.670Z,15.20
2018-09-13T05:00:28.161Z,15.10
2018-09-13T05:02:55.671Z,15.20
2018-09-13T05:05:23.194Z,15.20
2018-09-13T05:07:50.697Z,15.20
2018-09-13T05:10:18.216Z,15.20
2018-09-13T05:12:45.758Z,15.10
2018-09-13T05:15:13.260Z,15.10
2018-09-13T05:17:40.817Z,15.20
2018-09-13T05:20:08.340Z,15.20
2018-09-13T05:22:35.858Z,15.20
2018-09-13T05:25:03.739Z,15.20
2018-09-13T05:27:31.451Z,15.20
2018-09-13T05:29:58.980Z,15.20
2018-09-13T05:32:26.549Z,15.30
2018-09-13T05:34:54.243Z,15.40
2018-09-13T05:37:21.774Z,15.40
2018-09-13T05:39:49.356Z,15.40
2018-09-13T05:42:16.896Z,15.40
2018-09-13T05:44:44.492Z,15.40
2018-09-13T05:47:12.032Z,15.50
2018-09-13T05:49:39.562Z,15.50
2018-09-13T05:52:07.086Z,15.50
2018-09-13T05:54:34.629Z,15.40
2018-09-13T05:57:02.193Z,15.40
2018-09-13T05:59:29.694Z,15.30
2018-09-13T06:01:57.227Z,15.30
2018-09-13T06:04:24.826Z,15.40
2018-09-13T06:06:52.324Z,15.50
2018-09-13T06:09:19.852Z,15.60
2018-09-13T06:11:47.382Z,15.50
2018-09-13T06:14:14.945Z,15.60
2018-09-13T06:16:42.518Z,15.60
2018-09-13T06:19:10.056Z,15.60
2018-09-13T06:21:37.618Z,15.60
2018-09-13T06:24:05.345Z,15.60
2018-09-13T06:26:32.864Z,15.60
2018-09-13T06:29:00.361Z,15.70
2018-09-13T06:31:27.968Z,15.70
2018-09-13T06:33:55.476Z,15.70
2018-09-13T06:36:22.973Z,15.80
2018-09-13T06:38:50.689Z,15.80
2018-09-13T06:41:18.206Z,15.90
2018-09-13T06:43:45.767Z,15.90
2018-09-13T06:46:13.338Z,15.90
2018-09-13T06:48:40.862Z,15.90
2018-09-13T06:51:08.425Z,16.00
2018-09-13T06:53:35.993Z,16.00
2018-09-13T06:56:03.493Z,16.00
2018-09-13T06:58:31.166Z,16.00
2018-09-13T07:00:58.809Z,16.00
2018-09-13T07:03:26.325Z,16.00
2018-09-13T07:05:53.891Z,16.10
2018-09-13T07:08:21.407Z,16.10
2018-09-13T07:10:49.022Z,16.10
2018-09-13T07:13:17.524Z,16.20
2018-09-13T07:15:45.065Z,16.20
2018-09-13T07:18:12.568Z,16.20
2018-09-13T07:20:40.091Z,16.20
2018-09-13T07:23:07.666Z,16.20
2018-09-13T07:25:35.165Z,16.20
2018-09-13T07:28:02.682Z,16.20
2018-09-13T07:30:30.199Z,16.10
2018-09-13T07:32:57.709Z,16.20
2018-09-13T07:35:25.207Z,16.20
2018-09-13T07:37:53.028Z,16.30
2018-09-13T07:40:20.538Z,16.20
2018-09-13T07:42:48.257Z,16.30
2018-09-13T07:45:15.743Z,16.40
2018-09-13T07:47:43.265Z,16.50
2018-09-13T07:50:10.788Z,16.60
2018-09-13T07:52:38.400Z,16.70
2018-09-13T07:55:06.084Z,16.80
2018-09-13T07:57:33.683Z,16.90
2018-09-13T08:00:01.235Z,16.90
2018-09-13T08:02:28.720Z,17.10
2018-09-13T08:04:56.257Z,17.10
2018-09-13T08:07:23.720Z,17.20
2018-09-13T08:09:51.380Z,17.20
2018-09-13T08:12:18.944Z,17.20
2018-09-13T08:14:46.468Z,17.20
2018-09-13T08:17:13.969Z,17.30
2018-09-13T08:19:41.470Z,17.30
2018-09-13T08:22:09.076Z,17.50
2018-09-13T08:24:36.593Z,17.50
2018-09-13T08:27:04.191Z,17.50
2018-09-13T08:29:31.763Z,17.60
2018-09-13T08:31:59.317Z,17.60
2018-09-13T08:34:26.849Z,17.60
2018-09-13T08:36:54.413Z,17.60
2018-09-13T08:39:21.969Z,17.70
2018-09-13T08:41:49.495Z,17.60
2018-09-13T08:44:17.027Z,17.70
2018-09-13T08:46:44.545Z,17.60
2018-09-13T08:49:12.043Z,17.70
2018-09-13T08:51:39.555Z,17.90
2018-09-13T08:54:07.119Z,18.00
2018-09-13T08:56:34.644Z,18.10
2018-09-13T08:59:02.198Z,18.20
2018-09-13T09:01:29.705Z,18.40
2018-09-13T09:03:57.214Z,18.50
2018-09-13T09:06:24.842Z,18.70
2018-09-13T09:08:52.341Z,18.70
2018-09-13T09:11:19.856Z,18.70
2018-09-13T09:13:47.399Z,18.90
2018-09-13T09:16:14.923Z,18.80
2018-09-13T09:18:42.559Z,19.20
2018-09-13T09:21:10.095Z,19.40
2018-09-13T09:23:37.641Z,19.50
2018-09-13T09:26:05.261Z,19.50
2018-09-13T09:28:32.859Z,19.60
2018-09-13T09:31:00.384Z,19.70
2018-09-13T09:33:27.908Z,19.90
2018-09-13T09:35:55.460Z,20.10
2018-09-13T09:38:22.973Z,20.20
2018-09-13T09:40:50.602Z,20.30
2018-09-13T09:43:18.118Z,20.40
2018-09-13T09:45:45.616Z,20.70
2018-09-13T09:48:13.152Z,21.00
2018-09-13T09:50:40.659Z,21.20
2018-09-13T09:53:14.778Z,21.40
2018-09-13T09:55:42.313Z,21.50
2018-09-13T09:58:09.850Z,21.70
2018-09-13T10:00:42.958Z,21.70
2018-09-13T10:03:19.168Z,21.80
2018-09-13T10:05:46.713Z,21.70
2018-09-13T10:08:14.324Z,22.20
2018-09-13T10:10:41.873Z,22.30
2018-09-13T10:13:09.549Z,22.60
2018-09-13T10:15:42.709Z,23.10
2018-09-13T10:18:15.950Z,23.20
2018-09-13T10:20:49.130Z,23.20
2018-09-13T10:23:22.370Z,23.60
2018-09-13T10:25:55.542Z,23.50
2018-09-13T10:28:28.842Z,23.40
2018-09-13T10:31:02.128Z,23.50
2018-09-13T10:33:35.364Z,23.40
2018-09-13T10:36:08.586Z,23.30
2018-09-13T10:38:41.864Z,23.10
2018-09-13T10:41:15.046Z,23.10
2018-09-13T10:43:48.099Z,23.40
2018-09-13T10:46:21.383Z,23.50
2018-09-13T10:50:56.168Z,23.70
2018-09-13T10:53:28.698Z,23.50
2018-09-13T10:55:56.299Z,23.10
2018-09-13T10:58:23.838Z,23.20
2018-09-13T11:00:51.369Z,23.40
2018-09-13T11:03:18.930Z,23.40
2018-09-13T11:05:46.581Z,23.30
2018-09-13T11:08:14.322Z,23.40
2018-09-13T11:10:42.092Z,23.60
2018-09-13T11:13:14.586Z,23.50
2018-09-13T11:15:42.166Z,23.60
2018-09-13T11:18:09.726Z,23.20
2018-09-13T11:20:37.358Z,23.10
2018-09-13T11:23:04.920Z,22.90
2018-09-13T11:25:32.480Z,23.20
2018-09-13T11:28:00.104Z,23.30
2018-09-13T11:30:27.707Z,23.50
2018-09-13T11:32:55.156Z,23.20
2018-09-13T11:35:22.708Z,23.10
2018-09-13T11:37:50.250Z,23.00
2018-09-13T11:40:17.929Z,23.20
2018-09-13T11:42:45.464Z,23.40
2018-09-13T11:45:13.086Z,23.80
2018-09-13T11:47:41.327Z,24.00
2018-09-13T11:50:08.984Z,24.20
2018-09-13T11:52:36.589Z,23.50
2018-09-13T11:55:04.254Z,23.60
2018-09-13T11:57:31.806Z,24.00
2018-09-13T11:59:59.383Z,23.80
2018-09-13T12:02:27.248Z,24.10
2018-09-13T12:04:54.781Z,24.50
2018-09-13T12:07:22.444Z,24.90
2018-09-13T12:09:49.992Z,25.20
2018-09-13T12:12:17.500Z,25.20
2018-09-13T12:14:45.091Z,25.30
2018-09-13T12:17:12.708Z,25.30
2018-09-13T12:19:40.234Z,25.50
2018-09-13T12:22:07.756Z,25.50
2018-09-13T12:24:35.315Z,25.70
2018-09-13T12:27:02.912Z,25.30
2018-09-13T12:29:30.468Z,25.40
2018-09-13T12:31:58.298Z,25.70
2018-09-13T12:34:25.893Z,26.40
2018-09-13T12:36:53.509Z,26.40
2018-09-13T12:39:21.027Z,27.00
2018-09-13T12:41:48.578Z,27.20
2018-09-13T12:44:16.124Z,27.10
2018-09-13T12:46:43.707Z,27.10
2018-09-13T12:49:11.812Z,27.10
2018-09-13T12:51:39.390Z,27.20
2018-09-13T12:54:06.943Z,27.10
2018-09-13T12:56:34.529Z,27.10
2018-09-13T12:59:02.111Z,27.10
2018-09-13T13:01:29.645Z,27.20
2018-09-13T13:03:57.152Z,27.00
2018-09-13T13:06:24.756Z,27.00
2018-09-13T13:08:52.319Z,27.20
2018-09-13T13:11:19.839Z,27.40
2018-09-13T13:13:47.445Z,27.50
2018-09-13T13:16:14.956Z,27.20
2018-09-13T13:18:42.444Z,26.80
2018-09-13T13:21:09.967Z,26.60
2018-09-13T13:23:37.482Z,26.80
2018-09-13T13:26:05.046Z,26.90
2018-09-13T13:28:32.588Z,26.80
2018-09-13T13:31:00.095Z,27.30
2018-09-13T13:33:27.615Z,27.50
2018-09-13T13:35:55.161Z,28.50
2018-09-13T13:38:22.763Z,29.40
2018-09-13T13:40:50.281Z,30.10
2018-09-13T13:43:17.951Z,30.90
2018-09-13T13:45:45.469Z,31.20
2018-09-13T13:48:13.045Z,30.60
2018-09-13T13:50:40.590Z,31.00
2018-09-13T13:53:08.101Z,31.50
2018-09-13T13:55:35.647Z,32.20
2018-09-13T13:58:03.273Z,32.70
2018-09-13T14:00:30.788Z,32.90
2018-09-13T14:02:58.297Z,32.30
2018-09-13T14:05:25.853Z,32.60
2018-09-13T14:07:53.374Z,32.40
2018-09-13T14:10:20.893Z,32.40
2018-09-13T14:12:48.514Z,31.90
2018-09-13T14:15:16.051Z,31.80
2018-09-13T14:17:43.563Z,31.90
2018-09-13T14:20:11.182Z,33.20
2018-09-13T14:22:38.727Z,33.10
2018-09-13T14:25:06.245Z,32.20
2018-09-13T14:27:33.818Z,31.50
2018-09-13T14:30:01.342Z,31.60
2018-09-13T14:32:28.869Z,30.80
2018-09-13T14:34:56.404Z,30.30
2018-09-13T14:37:24.334Z,30.80
2018-09-13T14:39:51.848Z,30.60
2018-09-13T14:42:19.396Z,30.70
2018-09-13T14:44:46.896Z,30.30
2018-09-13T14:47:14.402Z,29.80
2018-09-13T14:49:41.970Z,30.00
2018-09-13T14:52:09.492Z,30.70
2018-09-13T14:54:37.046Z,31.30
2018-09-13T14:57:04.794Z,30.80
2018-09-13T14:59:32.339Z,31.40
2018-09-13T15:01:59.859Z,31.10
2018-09-13T15:04:27.510Z,30.90
2018-09-13T15:06:55.429Z,29.90
2018-09-13T15:09:22.930Z,29.30
2018-09-13T15:11:50.492Z,29.90
2018-09-13T15:14:18.018Z,30.30
2018-09-13T15:16:45.564Z,30.30
2018-09-13T15:19:13.153Z,29.70
2018-09-13T15:21:40.739Z,29.20
2018-09-13T15:24:08.270Z,29.20
2018-09-13T15:26:35.842Z,29.00
2018-09-13T15:29:03.386Z,29.90
2018-09-13T15:31:30.897Z,30.60
2018-09-13T15:33:58.416Z,31.60
2018-09-13T15:36:25.972Z,31.20
2018-09-13T15:38:53.559Z,30.30
2018-09-13T15:41:21.124Z,29.90
2018-09-13T15:43:48.692Z,29.20
2018-09-13T15:46:16.304Z,28.80
2018-09-13T15:48:43.994Z,28.30
2018-09-13T15:51:11.546Z,27.70
2018-09-13T15:53:39.416Z,27.20
2018-09-13T15:56:07.154Z,26.70
2018-09-13T15:58:34.758Z,26.40
2018-09-13T16:01:02.549Z,25.80
2018-09-13T16:03:30.196Z,25.60
2018-09-13T16:05:57.695Z,25.40
2018-09-13T16:08:25.202Z,25.20
2018-09-13T16:10:52.778Z,25.00
2018-09-13T16:13:20.288Z,24.80
2018-09-13T16:15:47.876Z,24.70
2018-09-13T16:18:15.451Z,24.40
2018-09-13T16:20:43.473Z,24.10
2018-09-13T16:23:11.293Z,23.80
2018-09-13T16:25:38.862Z,23.80
2018-09-13T16:28:06.485Z,23.60
2018-09-13T16:30:33.994Z,23.50
2018-09-13T16:33:01.560Z,23.20
2018-09-13T16:35:29.417Z,23.20
2018-09-13T16:38:02.786Z,23.00
2018-09-13T16:40:35.876Z,22.90
2018-09-13T16:43:09.126Z,22.90
2018-09-13T16:45:36.650Z,22.90
2018-09-13T16:48:04.997Z,23.20
2018-09-13T16:50:32.598Z,23.60
2018-09-13T16:53:00.223Z,24.60
2018-09-13T16:55:27.706Z,25.40
2018-09-13T16:57:55.342Z,25.90
2018-09-13T17:00:24.348Z,26.60
2018-09-13T17:02:51.926Z,26.80
2018-09-13T17:05:19.473Z,26.90
2018-09-13T17:07:47.066Z,27.40
2018-09-13T17:10:14.676Z,27.60
2018-09-13T17:12:42.468Z,27.70
2018-09-13T17:15:10.002Z,27.50
2018-09-13T17:17:37.620Z,27.50
2018-09-13T17:20:05.272Z,27.60
2018-09-13T17:22:32.901Z,27.30
2018-09-13T17:25:00.538Z,26.60
2018-09-13T17:27:28.110Z,25.90
2018-09-13T17:29:55.665Z,25.10
2018-09-13T17:32:23.317Z,24.50
2018-09-13T17:34:51.002Z,24.10
2018-09-13T17:37:18.540Z,23.70
2018-09-13T17:39:46.063Z,23.30
2018-09-13T17:42:13.609Z,23.10
2018-09-13T17:44:41.179Z,22.80
2018-09-13T17:47:08.802Z,22.60
2018-09-13T17:49:36.526Z,22.30
2018-09-13T17:52:04.094Z,22.10
2018-09-13T17:54:31.672Z,21.80
2018-09-13T17:56:59.322Z,21.60
2018-09-13T17:59:26.994Z,21.40
2018-09-13T18:01:54.740Z,21.10
2018-09-13T18:04:22.340Z,21.00
2018-09-13T18:06:49.846Z,20.70
2018-09-13T18:09:17.437Z,20.50
2018-09-13T18:11:45.149Z,20.30
2018-09-13T18:14:12.710Z,20.20
2018-09-13T18:16:40.273Z,20.00
2018-09-13T18:19:07.836Z,19.90
2018-09-13T18:21:35.381Z,19.80
2018-09-13T18:24:03.013Z,19.60
2018-09-13T18:26:30.655Z,19.50
2018-09-13T18:28:58.156Z,19.40
2018-09-13T18:31:25.761Z,19.30
2018-09-13T18:33:53.313Z,19.20
2018-09-13T18:36:20.893Z,19.10
2018-09-13T18:38:48.515Z,19.00
2018-09-13T18:41:16.274Z,18.90
2018-09-13T18:43:43.793Z,18.70
2018-09-13T18:46:11.518Z,18.70
2018-09-13T18:48:39.120Z,18.40
2018-09-13T18:51:06.638Z,18.30
2018-09-13T18:53:34.193Z,18.10
2018-09-13T18:56:01.816Z,17.90
2018-09-13T18:58:29.543Z,17.70
2018-09-13T19:00:57.017Z,17.60
2018-09-13T19:03:24.563Z,17.50
2018-09-13T19:05:52.069Z,17.40
2018-09-13T19:08:19.586Z,17.40
2018-09-13T19:10:47.227Z,17.30
2018-09-13T19:13:14.713Z,17.30
2018-09-13T19:15:42.334Z,17.20
2018-09-13T19:18:09.820Z,17.20
2018-09-13T19:20:37.329Z,17.10
2018-09-13T19:23:04.865Z,17.00
2018-09-13T19:25:32.409Z,17.00
2018-09-13T19:27:59.964Z,16.90
2018-09-13T19:30:27.551Z,16.90
2018-09-13T19:32:55.155Z,16.90
2018-09-13T19:35:22.728Z,16.90
2018-09-13T19:37:50.250Z,16.80
2018-09-13T19:40:17.850Z,16.70
2018-09-13T19:42:46.035Z,16.50
2018-09-13T19:45:13.530Z,16.40
2018-09-13T19:47:41.080Z,16.30
2018-09-13T19:50:08.605Z,16.20
2018-09-13T19:52:36.149Z,16.10
2018-09-13T19:55:04.092Z,16.00
2018-09-13T19:57:31.754Z,15.90
2018-09-13T19:59:59.254Z,15.90
2018-09-13T20:02:26.830Z,15.80
2018-09-13T20:04:54.500Z,15.70
2018-09-13T20:07:22.082Z,15.60
2018-09-13T20:09:49.601Z,15.50
2018-09-13T20:12:17.315Z,15.40
2018-09-13T20:14:44.754Z,15.40
2018-09-13T20:17:12.256Z,15.40
2018-09-13T20:19:39.785Z,15.30
2018-09-13T20:22:10.325Z,15.30
2018-09-13T20:24:37.915Z,15.30
2018-09-13T20:27:05.486Z,15.30
2018-09-13T20:29:33.009Z,15.30
2018-09-13T20:32:00.536Z,15.30
2018-09-13T20:34:28.095Z,15.10
2018-09-13T20:36:55.594Z,15.10
2018-09-13T20:39:23.129Z,15.10
2018-09-13T20:41:50.687Z,15.00
2018-09-13T20:44:18.184Z,14.90
2018-09-13T20:46:45.714Z,14.90
2018-09-13T20:49:13.221Z,14.80
2018-09-13T20:51:40.720Z,14.70
2018-09-13T20:54:08.238Z,14.60
2018-09-13T20:56:35.772Z,14.60
2018-09-13T20:59:03.344Z,14.40
2018-09-13T21:01:30.838Z,14.50
2018-09-13T21:03:58.390Z,14.60
2018-09-13T21:06:25.924Z,14.50
2018-09-13T21:08:53.420Z,14.50
2018-09-13T21:11:20.992Z,14.50
2018-09-13T21:13:48.526Z,14.40
2018-09-13T21:16:16.104Z,14.40
2018-09-13T21:18:43.632Z,14.40
2018-09-13T21:21:11.175Z,14.30
2018-09-13T21:23:38.747Z,14.20
2018-09-13T21:26:06.360Z,14.10
2018-09-13T21:28:33.878Z,14.10
2018-09-13T21:31:01.398Z,14.00
2018-09-13T21:33:28.928Z,13.90
2018-09-13T21:35:56.437Z,13.80
2018-09-13T21:38:23.946Z,13.90
2018-09-13T21:40:51.512Z,13.80
2018-09-13T21:43:19.050Z,13.80
2018-09-13T21:45:46.552Z,13.60
2018-09-13T21:48:14.088Z,13.60
2018-09-13T21:50:41.748Z,13.50
2018-09-13T21:53:09.258Z,13.40
2018-09-13T21:55:36.800Z,13.40
2018-09-13T21:58:04.339Z,13.40
2018-09-13T22:00:33.040Z,13.40
2018-09-13T22:03:00.578Z,13.30
2018-09-13T22:05:28.090Z,13.30
2018-09-13T22:07:55.602Z,13.20
2018-09-13T22:10:23.164Z,13.20
2018-09-13T22:12:50.660Z,13.10
2018-09-13T22:15:18.180Z,13.10
2018-09-13T22:17:45.767Z,13.00
2018-09-13T22:20:13.294Z,12.90
2018-09-13T22:22:40.833Z,12.90
2018-09-13T22:25:08.562Z,12.80
2018-09-13T22:27:36.059Z,12.80
2018-09-13T22:30:03.775Z,12.80
2018-09-13T22:32:31.303Z,12.80
2018-09-13T22:34:58.885Z,12.80
2018-09-13T22:37:26.409Z,12.70
2018-09-13T22:39:53.935Z,12.60
2018-09-13T22:42:21.441Z,12.60
2018-09-13T22:44:49.020Z,12.60
2018-09-13T22:47:16.554Z,12.60
2018-09-13T22:49:44.091Z,12.60
2018-09-13T22:52:11.593Z,12.60
2018-09-13T22:54:39.159Z,12.50
2018-09-13T22:57:07.120Z,12.40
2018-09-13T22:59:34.650Z,12.20
2018-09-13T23:02:02.203Z,12.10
2018-09-13T23:04:29.719Z,12.10
2018-09-13T23:06:57.236Z,12.00
2018-09-13T23:09:24.741Z,12.00
2018-09-13T23:11:52.292Z,12.10
2018-09-13T23:14:19.843Z,12.10
2018-09-13T23:16:49.580Z,12.10
2018-09-13T23:19:14.926Z,12.10
2018-09-13T23:21:42.448Z,12.20
2018-09-13T23:24:09.961Z,12.20
2018-09-13T23:26:37.517Z,12.10
2018-09-13T23:29:05.329Z,12.00
2018-09-13T23:31:32.861Z,11.80
2018-09-13T23:34:00.385Z,11.80
2018-09-13T23:36:27.961Z,11.70
2018-09-13T23:38:55.482Z,11.60
2018-09-13T23:41:23.003Z,11.60
2018-09-13T23:43:50.528Z,11.60
2018-09-13T23:46:18.091Z,11.60
2018-09-13T23:48:45.643Z,11.50
2018-09-13T23:51:13.161Z,11.50
2018-09-13T23:53:40.667Z,11.50
2018-09-13T23:56:08.257Z,11.50
2018-09-13T23:58:35.787Z,11.40
